Time;durP1;ratioP1;P1;durP2;ratioP2;P2;SDS_P1;SDS_P2;PMS_P1;PMS_P2;Temp;Humidity;BMP_temperature;BMP_pressure;BME280_temperature;BME280_humidity;BME280_pressure;Samples;Min_cycle;Max_cycle;Signal;HPM_P1;HPM_P2
2023/05/29 00:00:17;;;;;;;15.98;1.85;;;11.40;99.90;;;;;;4984000;28;20049;-90
2023/05/29 00:02:44;;;;;;;11.82;1.65;;;11.30;99.90;;;;;;4973245;28;20019;-89
2023/05/29 00:05:12;;;;;;;16.00;1.88;;;11.30;99.90;;;;;;4968851;28;20446;-89
2023/05/29 00:07:38;;;;;;;13.38;2.00;;;11.30;99.90;;;;;;4968688;28;20027;-90
2023/05/29 00:10:05;;;;;;;14.73;1.42;;;11.20;99.90;;;;;;4976170;28;20033;-89
2023/05/29 00:12:31;;;;;;;17.48;1.88;;;11.20;99.90;;;;;;4971723;28;20124;-90
2023/05/29 00:14:57;;;;;;;10.88;1.88;;;11.10;99.90;;;;;;4975982;28;20058;-89
2023/05/29 00:17:23;;;;;;;15.73;1.85;;;11.10;99.90;;;;;;4974113;28;20022;-90
2023/05/29 00:19:49;;;;;;;17.45;1.90;;;11.00;99.90;;;;;;4976034;28;20542;-90
2023/05/29 00:22:14;;;;;;;16.23;1.80;;;11.00;99.90;;;;;;4977852;28;20505;-90
2023/05/29 00:24:40;;;;;;;15.15;1.92;;;11.00;99.90;;;;;;4976161;28;20053;-90
2023/05/29 00:27:05;;;;;;;9.57;1.55;;;10.90;99.90;;;;;;4977615;28;20022;-89
2023/05/29 00:29:31;;;;;;;16.25;2.00;;;10.90;99.90;;;;;;4970486;28;20483;-89
2023/05/29 00:31:56;;;;;;;20.00;2.13;;;10.90;99.90;;;;;;4970687;28;20026;-89
2023/05/29 00:34:23;;;;;;;14.48;1.70;;;10.90;99.90;;;;;;4964618;28;20073;-89
2023/05/29 00:36:49;;;;;;;22.23;2.17;;;10.80;99.90;;;;;;4956067;28;20034;-90
2023/05/29 00:39:15;;;;;;;18.70;1.95;;;10.70;99.90;;;;;;4959045;28;20400;-89
2023/05/29 00:41:41;;;;;;;17.80;3.03;;;10.70;99.90;;;;;;4954784;28;20047;-90
2023/05/29 00:44:06;;;;;;;14.60;1.85;;;10.70;99.90;;;;;;4955544;28;20030;-90
2023/05/29 00:46:33;;;;;;;15.20;1.95;;;10.70;99.90;;;;;;4946830;28;20503;-89
2023/05/29 00:48:59;;;;;;;8.50;1.30;;;10.70;99.90;;;;;;4950488;28;20031;-90
2023/05/29 00:51:26;;;;;;;10.02;1.23;;;10.60;99.90;;;;;;4954229;28;20036;-89
2023/05/29 00:53:53;;;;;;;17.48;2.08;;;10.60;99.90;;;;;;4955639;28;20028;-90
2023/05/29 00:56:20;;;;;;;23.85;2.25;;;10.60;99.90;;;;;;4959930;28;20030;-90
2023/05/29 00:58:51;;;;;;;10.52;1.25;;;10.60;99.90;;;;;;4955473;28;20038;-90
2023/05/29 01:01:18;;;;;;;13.23;1.38;;;10.60;99.90;;;;;;4946470;28;20486;-90
2023/05/29 01:03:45;;;;;;;14.80;1.40;;;10.50;99.90;;;;;;4955173;28;20023;-90
2023/05/29 01:06:11;;;;;;;14.82;2.13;;;10.50;99.90;;;;;;4953135;28;20200;-90
2023/05/29 01:08:37;;;;;;;14.60;1.55;;;10.50;99.90;;;;;;4946710;28;20030;-90
2023/05/29 01:11:21;;;;;;;19.77;1.80;;;10.40;99.90;;;;;;4947886;28;20038;-90
2023/05/29 01:13:48;;;;;;;14.75;1.60;;;10.40;99.90;;;;;;4958802;28;20019;-90
2023/05/29 01:16:35;;;;;;;16.60;1.55;;;10.40;99.90;;;;;;4968199;28;20089;-90
2023/05/29 01:19:08;;;;;;;13.48;2.03;;;10.40;99.90;;;;;;4950012;28;20503;-89
2023/05/29 01:21:40;;;;;;;13.48;1.52;;;10.40;99.90;;;;;;4952982;28;20054;-89
2023/05/29 01:24:16;;;;;;;14.35;1.77;;;10.40;99.90;;;;;;4956817;28;20032;-89
2023/05/29 01:27:03;;;;;;;16.75;1.73;;;10.30;99.90;;;;;;4951756;28;20558;-90
2023/05/29 01:29:34;;;;;;;12.90;1.52;;;10.30;99.90;;;;;;4948670;28;20034;-89
2023/05/29 01:32:01;;;;;;;21.13;2.05;;;10.30;99.90;;;;;;4954810;28;20027;-90
2023/05/29 01:34:27;;;;;;;17.42;1.52;;;10.20;99.90;;;;;;4950025;28;20054;-90
2023/05/29 01:36:53;;;;;;;14.70;1.85;;;10.20;99.90;;;;;;4962153;28;20027;-90
2023/05/29 01:39:20;;;;;;;12.73;1.60;;;10.20;99.90;;;;;;4953522;28;20041;-90
2023/05/29 01:41:47;;;;;;;16.92;1.77;;;10.20;99.90;;;;;;4955879;28;20035;-90
2023/05/29 01:44:13;;;;;;;14.60;1.67;;;10.10;99.90;;;;;;4951396;28;20023;-90
2023/05/29 01:46:40;;;;;;;12.25;1.50;;;10.10;99.90;;;;;;4960463;28;20058;-90
2023/05/29 01:49:07;;;;;;;9.52;0.82;;;10.00;99.90;;;;;;4951648;28;20030;-90
2023/05/29 01:51:33;;;;;;;11.05;1.60;;;10.00;99.90;;;;;;4952194;28;20572;-90
2023/05/29 01:54:00;;;;;;;13.73;1.13;;;10.00;99.90;;;;;;4960231;28;20503;-90
2023/05/29 01:56:27;;;;;;;14.00;1.65;;;9.90;99.90;;;;;;4967042;28;20035;-90
2023/05/29 01:58:56;;;;;;;14.52;1.50;;;9.90;99.90;;;;;;4958813;28;20027;-90
2023/05/29 02:01:22;;;;;;;13.73;1.05;;;9.90;99.90;;;;;;4957968;28;20035;-90
2023/05/29 02:03:48;;;;;;;18.80;1.52;;;9.80;99.90;;;;;;4947854;28;20027;-90
2023/05/29 02:06:14;;;;;;;24.20;2.30;;;9.80;99.90;;;;;;4958824;28;20050;-89
2023/05/29 02:08:40;;;;;;;11.75;1.10;;;9.80;99.90;;;;;;4950327;28;20074;-90
2023/05/29 02:11:05;;;;;;;11.85;1.15;;;9.70;99.90;;;;;;4958687;28;20042;-90
2023/05/29 02:13:31;;;;;;;18.02;1.60;;;9.70;99.90;;;;;;4955600;28;20027;-90
2023/05/29 02:15:57;;;;;;;12.57;1.25;;;9.70;99.90;;;;;;4951798;28;20137;-90
2023/05/29 02:18:23;;;;;;;14.80;1.50;;;9.70;99.90;;;;;;4959115;28;20032;-90
2023/05/29 02:20:49;;;;;;;17.38;1.77;;;9.60;99.90;;;;;;4958594;28;20042;-90
2023/05/29 02:23:15;;;;;;;16.20;1.40;;;9.60;99.90;;;;;;4954309;28;20024;-90
2023/05/29 02:25:41;;;;;;;17.73;1.48;;;9.60;99.90;;;;;;4962433;28;20023;-89
2023/05/29 02:28:07;;;;;;;13.70;1.30;;;9.50;99.90;;;;;;4948446;28;20509;-90
2023/05/29 02:30:32;;;;;;;16.10;1.48;;;9.50;99.90;;;;;;4957278;28;20035;-89
2023/05/29 02:32:58;;;;;;;19.80;2.63;;;9.50;99.90;;;;;;4957376;28;20050;-90
2023/05/29 02:35:23;;;;;;;14.30;1.48;;;9.50;99.90;;;;;;4962600;28;20103;-89
2023/05/29 02:37:50;;;;;;;16.33;1.67;;;9.40;99.90;;;;;;4977992;28;20034;-90
2023/05/29 02:40:16;;;;;;;20.42;1.42;;;9.40;99.90;;;;;;4953816;28;20027;-89
2023/05/29 02:42:42;;;;;;;17.00;2.17;;;9.40;99.90;;;;;;4964158;28;20107;-90
2023/05/29 02:45:08;;;;;;;17.42;1.63;;;9.40;99.90;;;;;;4974209;28;20019;-89
2023/05/29 02:47:35;;;;;;;14.48;1.60;;;9.40;99.90;;;;;;4967839;28;20031;-89
2023/05/29 02:50:00;;;;;;;13.50;1.30;;;9.30;99.90;;;;;;4968492;28;20114;-89
2023/05/29 02:52:27;;;;;;;14.32;1.15;;;9.40;99.90;;;;;;4973936;28;20059;-90
2023/05/29 02:54:54;;;;;;;13.05;1.33;;;9.40;99.90;;;;;;4963304;28;20129;-90
2023/05/29 02:57:20;;;;;;;14.23;1.60;;;9.30;99.90;;;;;;4974440;28;20098;-91
2023/05/29 02:59:46;;;;;;;19.77;2.35;;;9.30;99.90;;;;;;4965219;28;20040;-90
2023/05/29 03:02:11;;;;;;;16.70;1.33;;;9.30;99.90;;;;;;4952811;28;20039;-90
2023/05/29 03:04:37;;;;;;;12.05;1.42;;;9.30;99.90;;;;;;4961884;28;20087;-90
2023/05/29 03:07:03;;;;;;;18.67;1.70;;;9.30;99.90;;;;;;4949523;28;20083;-90
2023/05/29 03:09:28;;;;;;;15.93;1.55;;;9.20;99.90;;;;;;4959798;28;20062;-90
2023/05/29 03:11:54;;;;;;;18.45;1.85;;;9.30;99.90;;;;;;4962110;28;20162;-90
2023/05/29 03:14:21;;;;;;;15.05;2.13;;;9.20;99.90;;;;;;4972269;28;20106;-90
2023/05/29 03:16:47;;;;;;;16.73;2.45;;;9.20;99.90;;;;;;4958517;28;20030;-89
2023/05/29 03:19:12;;;;;;;28.73;2.22;;;9.20;99.90;;;;;;4949015;28;20046;-89
2023/05/29 03:21:38;;;;;;;17.40;1.42;;;9.20;99.90;;;;;;4967029;28;20050;-90
2023/05/29 03:24:04;;;;;;;19.73;2.08;;;9.20;99.90;;;;;;4963208;28;20023;-89
2023/05/29 03:26:29;;;;;;;14.73;1.40;;;9.10;99.90;;;;;;4963651;28;20041;-90
2023/05/29 03:28:55;;;;;;;18.70;2.70;;;9.10;99.90;;;;;;4964803;28;20069;-91
2023/05/29 03:31:21;;;;;;;18.73;1.63;;;9.10;99.90;;;;;;4954344;28;20031;-90
2023/05/29 03:33:47;;;;;;;19.50;1.42;;;9.10;99.90;;;;;;4954792;28;20058;-90
2023/05/29 03:36:13;;;;;;;16.63;1.95;;;9.10;99.90;;;;;;4970964;28;20140;-90
2023/05/29 03:38:39;;;;;;;18.33;2.30;;;9.00;99.90;;;;;;4984790;28;20568;-90
2023/05/29 03:41:05;;;;;;;20.73;2.10;;;9.00;99.90;;;;;;4979863;28;20117;-90
2023/05/29 03:43:30;;;;;;;15.20;1.60;;;9.00;99.90;;;;;;4976602;28;20109;-91
2023/05/29 03:45:56;;;;;;;13.82;1.30;;;9.00;99.90;;;;;;4977654;28;20042;-91
2023/05/29 03:48:22;;;;;;;19.75;2.35;;;9.00;99.90;;;;;;4980986;28;20019;-90
2023/05/29 03:50:47;;;;;;;15.15;1.92;;;9.00;99.90;;;;;;4984299;28;20030;-90
2023/05/29 03:53:13;;;;;;;11.43;1.55;;;9.00;99.90;;;;;;4979880;28;20088;-89
2023/05/29 03:55:38;;;;;;;25.38;2.40;;;9.00;99.90;;;;;;4980843;28;20029;-90
2023/05/29 03:58:04;;;;;;;15.20;1.73;;;9.00;99.90;;;;;;4981365;28;20113;-90
2023/05/29 04:00:30;;;;;;;18.42;2.35;;;9.00;99.90;;;;;;4978055;28;20911;-90
2023/05/29 04:02:56;;;;;;;19.60;1.80;;;9.00;99.90;;;;;;4976686;28;20018;-90
2023/05/29 04:05:22;;;;;;;13.57;1.23;;;9.10;99.90;;;;;;4973966;28;20466;-90
2023/05/29 04:07:47;;;;;;;22.45;2.22;;;9.10;99.90;;;;;;4971156;28;20068;-90
2023/05/29 04:10:13;;;;;;;16.10;2.63;;;9.10;99.90;;;;;;4975996;28;20066;-90
2023/05/29 04:12:38;;;;;;;22.92;2.17;;;9.10;99.90;;;;;;4973300;28;20041;-90
2023/05/29 04:15:05;;;;;;;12.18;0.95;;;9.10;99.90;;;;;;4975725;28;20130;-90
2023/05/29 04:17:30;;;;;;;19.48;2.22;;;9.10;99.90;;;;;;4999482;28;20034;-89
2023/05/29 04:19:56;;;;;;;16.77;1.70;;;9.20;99.90;;;;;;4984922;28;20037;-90
2023/05/29 04:22:22;;;;;;;16.25;1.60;;;9.20;99.90;;;;;;4990807;28;20030;-90
2023/05/29 04:24:50;;;;;;;17.83;1.70;;;9.20;99.90;;;;;;4975652;28;20029;-92
2023/05/29 04:27:15;;;;;;;15.75;1.55;;;9.20;99.90;;;;;;4971724;28;20555;-92
2023/05/29 04:29:42;;;;;;;14.38;1.35;;;9.30;99.90;;;;;;4976825;28;20053;-91
2023/05/29 04:32:09;;;;;;;23.85;1.88;;;9.40;99.90;;;;;;4987838;28;20084;-90
2023/05/29 04:34:35;;;;;;;17.80;1.30;;;9.40;99.90;;;;;;4995969;28;20057;-90
2023/05/29 04:37:03;;;;;;;17.88;1.80;;;9.50;99.90;;;;;;5001135;28;20034;-91
2023/05/29 04:39:29;;;;;;;16.42;1.55;;;9.50;99.90;;;;;;4992333;28;20065;-90
2023/05/29 04:41:58;;;;;;;13.52;1.13;;;9.50;99.90;;;;;;4999539;28;20026;-89
2023/05/29 04:44:26;;;;;;;12.82;1.20;;;9.60;99.90;;;;;;4980785;28;20042;-90
2023/05/29 04:46:52;;;;;;;17.73;1.77;;;9.60;99.90;;;;;;4970533;28;20062;-91
2023/05/29 04:49:18;;;;;;;17.98;1.33;;;9.60;99.90;;;;;;4984793;28;20050;-91
2023/05/29 04:51:44;;;;;;;28.50;1.60;;;9.60;99.90;;;;;;4979139;28;20038;-90
2023/05/29 04:54:11;;;;;;;14.65;1.33;;;9.70;99.90;;;;;;4985097;28;20109;-87
2023/05/29 04:56:37;;;;;;;16.42;1.90;;;9.90;99.90;;;;;;4982298;28;20398;-91
2023/05/29 04:59:03;;;;;;;11.73;1.13;;;10.00;99.90;;;;;;4978025;28;20032;-90
2023/05/29 05:01:28;;;;;;;13.13;1.30;;;10.20;99.90;;;;;;4986493;28;20472;-89
2023/05/29 05:03:57;;;;;;;19.80;1.38;;;10.50;99.90;;;;;;4991141;28;20049;-91
2023/05/29 05:06:25;;;;;;;20.15;1.90;;;10.60;99.90;;;;;;4986070;28;20031;-89
2023/05/29 05:08:53;;;;;;;18.48;2.70;;;10.70;99.90;;;;;;4973798;28;20026;-90
2023/05/29 05:11:20;;;;;;;12.57;1.40;;;10.90;99.90;;;;;;4973836;28;20137;-91
2023/05/29 05:13:46;;;;;;;16.50;1.65;;;11.10;99.90;;;;;;4971852;28;20057;-90
2023/05/29 05:16:12;;;;;;;14.48;1.58;;;11.20;99.90;;;;;;4973218;28;20026;-91
2023/05/29 05:18:37;;;;;;;11.50;1.23;;;11.30;99.90;;;;;;4978096;28;20184;-90
2023/05/29 05:21:03;;;;;;;19.00;1.52;;;11.50;99.90;;;;;;4976645;28;20555;-90
2023/05/29 05:23:30;;;;;;;18.00;1.88;;;11.60;99.90;;;;;;4978186;28;20090;-91
2023/05/29 05:25:55;;;;;;;13.82;1.25;;;11.80;99.90;;;;;;4978198;28;20030;-89
2023/05/29 05:28:21;;;;;;;12.52;0.90;;;11.90;99.90;;;;;;4974820;28;20028;-89
2023/05/29 05:30:47;;;;;;;14.00;1.27;;;12.00;99.90;;;;;;4972749;28;20031;-89
2023/05/29 05:33:12;;;;;;;16.52;2.08;;;12.00;99.90;;;;;;4979556;28;20044;-90
2023/05/29 05:35:38;;;;;;;16.73;1.65;;;12.10;99.90;;;;;;4976711;28;20046;-90
2023/05/29 05:38:04;;;;;;;12.82;1.95;;;12.10;99.90;;;;;;4990237;28;20030;-90
2023/05/29 05:40:29;;;;;;;16.30;1.27;;;12.10;99.90;;;;;;4977395;28;20049;-90
2023/05/29 05:42:55;;;;;;;15.00;2.05;;;12.10;99.90;;;;;;4978587;28;20454;-91
2023/05/29 05:45:21;;;;;;;14.00;1.02;;;12.10;99.90;;;;;;4984608;28;20497;-91
2023/05/29 05:47:47;;;;;;;16.70;1.35;;;12.10;99.90;;;;;;4985913;28;20490;-91
2023/05/29 05:50:12;;;;;;;13.27;1.85;;;12.00;99.90;;;;;;4969527;28;20034;-91
2023/05/29 05:52:38;;;;;;;19.90;2.10;;;12.00;99.90;;;;;;4974878;28;20045;-91
2023/05/29 05:55:04;;;;;;;20.10;1.25;;;12.00;99.90;;;;;;4980326;28;20026;-90
2023/05/29 05:57:32;;;;;;;10.60;1.13;;;12.00;99.90;;;;;;4981069;28;20136;-89
2023/05/29 05:59:58;;;;;;;7.82;0.85;;;12.00;99.90;;;;;;4967729;28;20023;-88
2023/05/29 06:02:23;;;;;;;16.65;1.65;;;11.90;99.90;;;;;;4985866;28;20026;-89
2023/05/29 06:04:49;;;;;;;16.65;1.70;;;11.90;99.90;;;;;;4985106;28;20049;-88
2023/05/29 06:07:15;;;;;;;15.98;1.75;;;11.90;99.90;;;;;;4973711;28;20050;-91
2023/05/29 06:09:41;;;;;;;11.77;1.25;;;12.00;99.90;;;;;;4967663;28;20030;-90
2023/05/29 06:12:08;;;;;;;9.48;0.88;;;12.00;99.90;;;;;;4978111;28;20053;-90
2023/05/29 06:14:34;;;;;;;15.95;1.60;;;12.00;99.90;;;;;;4964438;28;20030;-90
2023/05/29 06:17:00;;;;;;;9.70;1.02;;;12.10;99.90;;;;;;4979952;28;20026;-89
2023/05/29 06:19:25;;;;;;;8.50;0.88;;;12.20;99.90;;;;;;4971853;28;20065;-89
2023/05/29 06:21:51;;;;;;;10.80;1.00;;;12.20;99.90;;;;;;4979536;28;20487;-89
2023/05/29 06:24:16;;;;;;;13.32;0.88;;;12.20;99.90;;;;;;4965401;28;20057;-89
2023/05/29 06:26:42;;;;;;;16.23;1.70;;;12.20;99.90;;;;;;4972668;28;20046;-90
2023/05/29 06:29:07;;;;;;;16.38;1.48;;;12.20;99.90;;;;;;4977606;28;20037;-90
2023/05/29 06:31:33;;;;;;;17.65;1.50;;;12.20;99.90;;;;;;4982264;28;20128;-89
2023/05/29 06:33:59;;;;;;;8.27;0.90;;;12.20;99.90;;;;;;4960844;28;20047;-89
2023/05/29 06:36:25;;;;;;;13.70;1.13;;;12.20;99.90;;;;;;4945556;28;20039;-88
2023/05/29 06:38:51;;;;;;;9.75;1.08;;;12.30;99.90;;;;;;4945459;28;20031;-88
2023/05/29 06:41:17;;;;;;;9.63;1.02;;;12.30;99.90;;;;;;4948542;28;20075;-89
2023/05/29 06:43:43;;;;;;;12.38;1.23;;;12.30;99.90;;;;;;4938233;28;20043;-90
2023/05/29 06:46:09;;;;;;;10.27;2.00;;;12.30;99.90;;;;;;4943317;28;20027;-90
2023/05/29 06:48:35;;;;;;;17.48;1.60;;;12.40;99.90;;;;;;4945134;29;20020;-90
2023/05/29 06:51:08;;;;;;;9.25;0.93;;;12.50;99.90;;;;;;4954462;28;20078;-90
2023/05/29 06:53:35;;;;;;;12.07;1.13;;;12.60;99.90;;;;;;4940102;28;20047;-89
2023/05/29 06:56:01;;;;;;;14.38;1.65;;;12.70;99.90;;;;;;4947910;28;20039;-90
2023/05/29 06:58:27;;;;;;;12.98;1.10;;;12.80;99.90;;;;;;4943807;28;20035;-90
2023/05/29 07:00:52;;;;;;;14.27;1.23;;;12.80;99.90;;;;;;4953507;28;20059;-89
2023/05/29 07:03:18;;;;;;;10.43;0.90;;;12.80;99.90;;;;;;4952209;28;20099;-89
2023/05/29 07:05:43;;;;;;;12.75;1.13;;;12.80;99.90;;;;;;4954663;28;20134;-89
2023/05/29 07:08:09;;;;;;;9.90;1.20;;;12.90;99.90;;;;;;4955762;28;20114;-88
2023/05/29 07:10:35;;;;;;;10.30;1.13;;;13.00;99.90;;;;;;4952452;28;20038;-90
2023/05/29 07:13:00;;;;;;;9.32;1.00;;;13.10;99.90;;;;;;4949797;29;20028;-89
2023/05/29 07:15:26;;;;;;;15.32;1.48;;;13.20;99.90;;;;;;4971705;28;20478;-89
2023/05/29 07:17:51;;;;;;;8.48;0.93;;;13.30;99.90;;;;;;4953246;28;20079;-89
2023/05/29 07:20:19;;;;;;;9.25;1.45;;;13.40;99.90;;;;;;4955510;28;20028;-89
2023/05/29 07:22:45;;;;;;;13.90;1.10;;;13.50;99.90;;;;;;4955260;28;20600;-89
2023/05/29 07:25:11;;;;;;;10.77;1.10;;;13.60;99.90;;;;;;4949804;28;20110;-89
2023/05/29 07:27:37;;;;;;;12.00;1.17;;;13.60;99.90;;;;;;4952140;28;20475;-89
2023/05/29 07:30:04;;;;;;;16.38;1.55;;;13.80;99.90;;;;;;4948523;28;20038;-89
2023/05/29 07:32:30;;;;;;;9.77;0.80;;;13.80;99.90;;;;;;4951358;28;20035;-88
2023/05/29 07:34:56;;;;;;;12.05;1.65;;;13.80;99.90;;;;;;4955560;28;20071;-89
2023/05/29 07:37:21;;;;;;;18.70;1.50;;;13.80;99.90;;;;;;4950794;28;20102;-89
2023/05/29 07:39:47;;;;;;;10.07;0.88;;;13.80;99.90;;;;;;4956399;28;20058;-88
2023/05/29 07:42:12;;;;;;;6.53;0.70;;;13.90;99.90;;;;;;4962578;28;20460;-89
2023/05/29 07:44:38;;;;;;;13.38;1.48;;;14.00;99.90;;;;;;4962327;28;20029;-90
2023/05/29 07:47:03;;;;;;;10.27;1.45;;;14.10;99.90;;;;;;4955436;28;20031;-89
2023/05/29 07:49:30;;;;;;;10.38;1.23;;;14.30;99.90;;;;;;4959471;28;20134;-89
2023/05/29 07:51:55;;;;;;;36.90;3.03;;;14.40;99.90;;;;;;4953437;28;20105;-89
2023/05/29 07:54:22;;;;;;;16.98;1.55;;;14.40;99.90;;;;;;4946452;28;20037;-89
2023/05/29 07:56:48;;;;;;;12.88;1.33;;;14.40;99.90;;;;;;4955265;28;20089;-88
2023/05/29 07:59:13;;;;;;;9.13;0.93;;;14.40;99.90;;;;;;4959127;28;20027;-88
2023/05/29 08:01:41;;;;;;;8.30;0.90;;;14.50;99.90;;;;;;4948481;28;20542;-88
2023/05/29 08:04:06;;;;;;;14.55;1.98;;;14.50;99.90;;;;;;4954250;28;20027;-88
2023/05/29 08:06:36;;;;;;;12.55;1.08;;;14.50;99.90;;;;;;4970001;28;20030;-90
2023/05/29 08:09:01;;;;;;;12.27;0.80;;;14.50;99.90;;;;;;4960121;28;20035;-90
2023/05/29 08:11:27;;;;;;;7.70;0.95;;;14.50;99.90;;;;;;4974066;28;20082;-89
2023/05/29 08:13:52;;;;;;;10.75;1.15;;;14.50;99.90;;;;;;4962126;28;20023;-89
2023/05/29 08:16:18;;;;;;;10.20;0.88;;;14.60;99.90;;;;;;4945401;28;20031;-90
2023/05/29 08:18:44;;;;;;;9.52;1.23;;;14.80;99.90;;;;;;4959737;28;20027;-89
2023/05/29 08:21:10;;;;;;;13.05;0.90;;;14.90;99.90;;;;;;4946659;28;20063;-90
2023/05/29 08:23:35;;;;;;;9.18;1.10;;;15.00;99.90;;;;;;4953109;28;20082;-90
2023/05/29 08:26:05;;;;;;;11.38;1.13;;;15.10;99.90;;;;;;4955187;28;20081;-91
2023/05/29 08:28:30;;;;;;;13.55;1.10;;;15.10;98.80;;;;;;4946042;28;20024;-90
2023/05/29 08:30:56;;;;;;;9.10;1.23;;;15.10;99.10;;;;;;4946971;28;20023;-89
2023/05/29 08:33:21;;;;;;;10.20;0.73;;;15.10;98.80;;;;;;4965759;28;20033;-89
2023/05/29 08:35:47;;;;;;;16.85;1.30;;;15.20;98.80;;;;;;4956701;28;20511;-90
2023/05/29 08:38:12;;;;;;;8.55;0.90;;;15.20;98.80;;;;;;4957377;28;20038;-90
2023/05/29 08:40:38;;;;;;;10.43;1.10;;;15.40;99.00;;;;;;4957519;28;20039;-89
2023/05/29 08:43:15;;;;;;;14.20;1.33;;;15.50;98.70;;;;;;4959973;28;20040;-90
2023/05/29 08:45:43;;;;;;;11.30;0.88;;;15.60;98.30;;;;;;4954207;28;20034;-89
2023/05/29 08:48:11;;;;;;;12.50;1.02;;;15.60;98.10;;;;;;4968144;28;20031;-90
2023/05/29 08:50:48;;;;;;;8.60;1.30;;;15.60;96.90;;;;;;4945123;29;20428;-90
2023/05/29 08:53:15;;;;;;;10.13;1.00;;;15.50;97.20;;;;;;4954453;28;20035;-91
2023/05/29 08:55:40;;;;;;;11.60;1.00;;;15.60;97.30;;;;;;4938462;29;20027;-91
2023/05/29 08:58:06;;;;;;;8.75;1.10;;;15.70;97.20;;;;;;4955418;28;20023;-89
2023/05/29 09:00:33;;;;;;;7.85;0.98;;;15.70;96.40;;;;;;4966085;28;20073;-90
2023/05/29 09:02:59;;;;;;;8.48;0.90;;;15.70;96.60;;;;;;4970621;28;20078;-90
2023/05/29 09:05:27;;;;;;;10.45;1.30;;;15.70;96.60;;;;;;4959147;28;20054;-90
2023/05/29 09:07:53;;;;;;;16.88;1.35;;;15.80;96.20;;;;;;4954080;28;20387;-89
2023/05/29 09:10:20;;;;;;;8.63;0.80;;;15.80;96.00;;;;;;4958974;28;20031;-89
2023/05/29 09:12:46;;;;;;;5.80;1.08;;;16.00;96.20;;;;;;4950292;29;20110;-90
2023/05/29 09:15:21;;;;;;;11.32;1.20;;;16.20;96.40;;;;;;4952200;28;20133;-89
2023/05/29 09:17:52;;;;;;;8.20;0.98;;;16.40;95.90;;;;;;4955682;28;20044;-90
2023/05/29 09:20:18;;;;;;;6.15;1.23;;;16.60;95.30;;;;;;4956572;28;20070;-90
2023/05/29 09:22:54;;;;;;;15.82;2.88;;;16.70;94.90;;;;;;4951633;28;20032;-90
2023/05/29 09:25:24;;;;;;;13.25;1.52;;;16.70;94.20;;;;;;4964443;28;20121;-90
2023/05/29 09:27:58;;;;;;;6.82;0.80;;;16.70;94.00;;;;;;4964119;28;20027;-89
2023/05/29 09:30:37;;;;;;;6.95;0.90;;;16.80;93.40;;;;;;4946736;29;20054;-88
2023/05/29 09:33:04;;;;;;;9.65;1.15;;;16.70;93.50;;;;;;4946589;28;20027;-89
2023/05/29 09:35:39;;;;;;;6.90;1.25;;;16.70;93.30;;;;;;4949918;28;20097;-89
2023/05/29 09:38:06;;;;;;;11.35;1.17;;;16.70;93.10;;;;;;4948312;28;20023;-89
2023/05/29 09:40:33;;;;;;;8.90;1.30;;;16.70;93.20;;;;;;4958975;28;20043;-90
2023/05/29 09:43:10;;;;;;;9.40;0.80;;;16.70;93.40;;;;;;4953494;28;20506;-90
2023/05/29 09:45:44;;;;;;;12.30;1.02;;;16.80;93.60;;;;;;4957153;28;20080;-88
2023/05/29 09:48:22;;;;;;;10.40;1.70;;;16.90;92.70;;;;;;4957585;28;20030;-88
2023/05/29 09:50:48;;;;;;;6.28;0.80;;;16.90;93.30;;;;;;4946008;28;20046;-88
2023/05/29 09:53:24;;;;;;;10.30;1.25;;;16.90;92.20;;;;;;4971054;28;20019;-90
2023/05/29 09:55:50;;;;;;;9.27;0.70;;;16.90;92.00;;;;;;4954738;28;20170;-88
2023/05/29 09:58:18;;;;;;;7.53;1.15;;;17.00;92.70;;;;;;4943735;29;20035;-89
2023/05/29 10:00:44;;;;;;;10.88;1.23;;;17.20;92.80;;;;;;4945665;28;20027;-89
2023/05/29 10:03:12;;;;;;;8.15;1.20;;;17.40;92.00;;;;;;4946793;28;20147;-90
2023/05/29 10:05:39;;;;;;;7.88;1.05;;;17.50;92.00;;;;;;4974644;28;20483;-89
2023/05/29 10:08:08;;;;;;;7.15;1.23;;;17.70;91.80;;;;;;4952312;28;20118;-87
2023/05/29 10:10:36;;;;;;;10.38;0.98;;;17.80;92.10;;;;;;4954922;28;20055;-88
2023/05/29 10:13:03;;;;;;;12.55;1.35;;;17.90;91.20;;;;;;4959003;28;20102;-89
2023/05/29 10:15:32;;;;;;;7.47;0.82;;;18.00;90.80;;;;;;4956527;28;20495;-88
2023/05/29 10:18:04;;;;;;;8.48;1.33;;;18.00;90.10;;;;;;4946986;28;20035;-89
2023/05/29 10:20:31;;;;;;;6.22;1.08;;;17.90;90.60;;;;;;4955167;28;20566;-88
2023/05/29 10:23:00;;;;;;;8.90;1.38;;;18.00;90.20;;;;;;4956427;28;20034;-89
2023/05/29 10:25:29;;;;;;;9.02;1.50;;;18.00;88.90;;;;;;4952704;28;20491;-89
2023/05/29 10:27:56;;;;;;;6.43;0.70;;;17.90;88.90;;;;;;4963405;28;20071;-88
2023/05/29 10:30:43;;;;;;;8.65;1.50;;;18.00;89.70;;;;;;4961891;28;20031;-88
2023/05/29 10:33:35;;;;;;;8.50;1.02;;;18.00;89.00;;;;;;4955116;28;20105;-88
2023/05/29 10:36:10;;;;;;;8.15;1.08;;;18.10;89.80;;;;;;4957878;28;20070;-88
2023/05/29 10:38:36;;;;;;;8.45;0.77;;;18.10;89.00;;;;;;4956580;28;20034;-88
2023/05/29 10:41:27;;;;;;;11.27;1.48;;;18.20;88.50;;;;;;4960693;28;20045;-87
2023/05/29 10:43:57;;;;;;;7.78;1.17;;;18.30;89.30;;;;;;4977545;28;20439;-88
2023/05/29 10:46:45;;;;;;;6.55;1.35;;;18.40;88.40;;;;;;4952120;28;20027;-88
2023/05/29 10:49:21;;;;;;;23.77;1.77;;;18.40;87.20;;;;;;4963805;28;20027;-87
2023/05/29 10:51:48;;;;;;;9.93;0.65;;;18.50;87.20;;;;;;4962875;28;20058;-87
2023/05/29 10:54:14;;;;;;;5.57;0.93;;;18.70;87.10;;;;;;4978694;28;20027;-89
2023/05/29 10:56:41;;;;;;;6.95;0.90;;;18.90;85.50;;;;;;4970431;28;20034;-87
2023/05/29 10:59:08;;;;;;;7.38;0.85;;;19.00;82.90;;;;;;4961494;28;20019;-89
2023/05/29 11:01:34;;;;;;;5.30;0.80;;;18.90;82.20;;;;;;4952562;28;20039;-88
2023/05/29 11:04:17;;;;;;;7.05;1.00;;;18.90;82.10;;;;;;4961650;28;20026;-88
2023/05/29 11:06:43;;;;;;;6.20;0.90;;;19.10;81.50;;;;;;4945004;28;20028;-88
2023/05/29 11:09:30;;;;;;;5.78;0.73;;;19.20;81.10;;;;;;4977663;28;20046;-88
2023/05/29 11:12:25;;;;;;;8.07;1.45;;;19.20;80.80;;;;;;4948472;29;20055;-88
2023/05/29 11:15:13;;;;;;;9.45;0.90;;;19.10;79.80;;;;;;4961633;28;20024;-88
2023/05/29 11:17:38;;;;;;;9.05;0.80;;;19.10;78.50;;;;;;4952014;28;20479;-88
2023/05/29 11:20:24;;;;;;;8.57;0.93;;;19.10;78.40;;;;;;4969154;28;20025;-88
2023/05/29 11:23:06;;;;;;;4.55;0.77;;;19.10;77.90;;;;;;4973224;28;20167;-88
2023/05/29 11:25:34;;;;;;;14.35;1.38;;;19.10;76.90;;;;;;4971898;28;20113;-88
2023/05/29 11:28:00;;;;;;;6.22;0.60;;;19.10;75.30;;;;;;4950517;28;20028;-87
2023/05/29 11:30:26;;;;;;;6.97;0.80;;;19.10;76.40;;;;;;4970425;28;20034;-89
2023/05/29 11:32:53;;;;;;;11.73;1.33;;;19.20;74.80;;;;;;4965224;28;20085;-88
2023/05/29 11:35:21;;;;;;;5.57;1.00;;;19.10;74.20;;;;;;4973696;28;20499;-87
2023/05/29 11:37:47;;;;;;;6.53;1.00;;;19.00;71.10;;;;;;4972469;28;20035;-88
2023/05/29 11:40:14;;;;;;;5.20;0.75;;;18.90;71.40;;;;;;4954511;28;20035;-88
2023/05/29 11:42:44;;;;;;;6.53;2.15;;;18.90;70.00;;;;;;4966065;28;20496;-88
2023/05/29 11:45:21;;;;;;;6.50;0.93;;;18.90;71.40;;;;;;4963900;28;20035;-88
2023/05/29 11:47:53;;;;;;;8.88;1.63;;;19.00;71.10;;;;;;4951911;28;20039;-87
2023/05/29 11:50:24;;;;;;;7.28;1.05;;;19.00;71.30;;;;;;4967855;28;20580;-88
2023/05/29 11:52:51;;;;;;;9.52;0.98;;;19.10;71.70;;;;;;4970008;28;20027;-88
2023/05/29 11:55:18;;;;;;;9.13;1.20;;;19.10;71.70;;;;;;4973195;28;20492;-89
2023/05/29 11:57:43;;;;;;;6.85;1.00;;;19.30;73.00;;;;;;4964684;28;20042;-89
2023/05/29 12:00:14;;;;;;;7.15;1.02;;;19.50;72.30;;;;;;4957915;28;20031;-89
2023/05/29 12:02:40;;;;;;;8.73;1.33;;;19.60;71.20;;;;;;4973181;28;20027;-89
2023/05/29 12:05:08;;;;;;;7.88;1.10;;;19.70;71.30;;;;;;4963125;28;20026;-88
2023/05/29 12:07:35;;;;;;;14.93;1.42;;;19.70;70.50;;;;;;4966100;28;20037;-89
2023/05/29 12:10:12;;;;;;;9.45;1.10;;;19.70;70.90;;;;;;4962264;28;20035;-90
2023/05/29 12:12:39;;;;;;;10.25;1.30;;;19.80;70.80;;;;;;4963367;28;20026;-90
2023/05/29 12:15:06;;;;;;;7.03;0.70;;;19.60;68.70;;;;;;4959840;28;20035;-88
2023/05/29 12:17:32;;;;;;;7.28;1.15;;;19.60;68.80;;;;;;4958817;28;20027;-89
2023/05/29 12:19:58;;;;;;;6.95;1.35;;;19.50;68.00;;;;;;4974786;28;20023;-89
2023/05/29 12:22:37;;;;;;;4.20;0.70;;;19.60;68.00;;;;;;4955763;28;20393;-88
2023/05/29 12:25:10;;;;;;;8.65;1.58;;;19.70;67.60;;;;;;4966065;28;20615;-89
2023/05/29 12:27:42;;;;;;;6.68;0.90;;;19.60;68.30;;;;;;4960609;28;20122;-88
2023/05/29 12:30:19;;;;;;;8.77;1.00;;;19.60;69.00;;;;;;4968213;28;20026;-88
2023/05/29 12:32:46;;;;;;;6.43;1.00;;;19.70;67.00;;;;;;4969373;28;20033;-88
2023/05/29 12:35:25;;;;;;;7.28;1.02;;;19.60;68.20;;;;;;4960564;28;20504;-88
2023/05/29 12:37:58;;;;;;;7.50;0.88;;;19.50;67.60;;;;;;4956676;29;20035;-87
2023/05/29 12:40:24;;;;;;;5.88;0.80;;;19.60;68.10;;;;;;4940889;28;20035;-88
2023/05/29 12:43:16;;;;;;;10.65;1.40;;;19.70;68.00;;;;;;4969216;28;20038;-88
2023/05/29 12:45:42;;;;;;;7.28;0.82;;;19.90;67.30;;;;;;4965196;28;20035;-87